createdAt,value
2019-05-30T00:00:03.692Z,24.20
2019-05-30T00:02:18.603Z,24.20
2019-05-30T00:04:47.617Z,24.20
2019-05-30T00:07:16.587Z,24.20
2019-05-30T00:09:45.402Z,24.20
2019-05-30T00:12:14.304Z,24.20
2019-05-30T00:14:43.095Z,24.20
2019-05-30T00:17:12.022Z,24.20
2019-05-30T00:19:40.908Z,24.20
2019-05-30T00:22:09.751Z,24.20
2019-05-30T00:24:38.616Z,24.10
2019-05-30T00:27:07.500Z,24.10
2019-05-30T00:29:36.598Z,24.10
2019-05-30T00:32:05.532Z,24.10
2019-05-30T00:34:34.515Z,24.10
2019-05-30T00:37:04.069Z,24.10
2019-05-30T00:39:32.985Z,24.10
2019-05-30T00:42:02.105Z,24.00
2019-05-30T00:44:31.084Z,24.10
2019-05-30T00:47:00.628Z,24.00
2019-05-30T00:49:29.879Z,24.00
2019-05-30T00:51:58.773Z,24.00
2019-05-30T00:54:27.644Z,24.00
2019-05-30T00:56:56.603Z,24.00
2019-05-30T00:59:25.480Z,24.00
2019-05-30T01:01:54.401Z,24.00
2019-05-30T01:04:42.537Z,24.00
2019-05-30T01:07:11.474Z,24.00
2019-05-30T01:09:40.355Z,24.00
2019-05-30T01:12:11.786Z,24.00
2019-05-30T01:14:40.684Z,24.00
2019-05-30T01:17:10.090Z,24.00
2019-05-30T01:19:39.022Z,24.00
2019-05-30T01:22:08.477Z,24.00
2019-05-30T01:24:37.297Z,24.00
2019-05-30T01:27:07.488Z,24.00
2019-05-30T01:29:36.651Z,24.00
2019-05-30T01:32:23.505Z,24.00
2019-05-30T01:35:11.654Z,24.00
2019-05-30T01:37:40.501Z,24.00
2019-05-30T01:40:09.312Z,23.90
2019-05-30T01:42:38.143Z,24.00
2019-05-30T01:45:08.321Z,24.00
2019-05-30T01:47:37.697Z,24.00
2019-05-30T01:50:06.799Z,24.00
2019-05-30T01:52:35.660Z,24.00
2019-05-30T01:55:04.960Z,24.00
2019-05-30T01:57:33.796Z,24.00
2019-05-30T02:00:08.001Z,24.00
2019-05-30T02:02:33.332Z,24.00
2019-05-30T02:05:03.028Z,24.00
2019-05-30T02:07:32.151Z,24.00
2019-05-30T02:10:01.186Z,24.00
2019-05-30T02:12:49.364Z,24.00
2019-05-30T02:15:18.244Z,23.90
2019-05-30T02:17:47.057Z,24.00
2019-05-30T02:20:15.911Z,24.00
2019-05-30T02:22:44.747Z,23.90
2019-05-30T02:25:13.609Z,23.90
2019-05-30T02:27:42.540Z,23.90
2019-05-30T02:30:14.692Z,23.90
2019-05-30T02:32:41.931Z,23.90
2019-05-30T02:35:12.768Z,23.90
2019-05-30T02:37:41.422Z,23.90
2019-05-30T02:40:14.988Z,23.90
2019-05-30T02:42:41.234Z,23.90
2019-05-30T02:45:12.277Z,23.90
2019-05-30T02:47:40.877Z,23.80
2019-05-30T02:50:11.658Z,23.90
2019-05-30T02:52:40.340Z,23.90
2019-05-30T02:55:12.555Z,23.90
2019-05-30T02:57:39.820Z,23.80
2019-05-30T03:00:13.913Z,23.90
2019-05-30T03:02:39.939Z,23.90
2019-05-30T03:05:11.963Z,23.90
2019-05-30T03:07:39.407Z,23.90
2019-05-30T03:10:11.816Z,23.90
2019-05-30T03:12:38.944Z,23.90
2019-05-30T03:15:11.594Z,23.90
2019-05-30T03:17:58.046Z,23.90
2019-05-30T03:20:26.853Z,23.80
2019-05-30T03:22:55.675Z,23.90
2019-05-30T03:25:24.574Z,23.90
2019-05-30T03:27:53.488Z,23.90
2019-05-30T03:30:28.416Z,23.90
2019-05-30T03:33:07.212Z,23.90
2019-05-30T03:35:29.456Z,23.80
2019-05-30T03:37:54.052Z,23.90
2019-05-30T03:40:25.089Z,23.80
2019-05-30T03:42:53.495Z,23.80
2019-05-30T03:45:22.457Z,23.80
2019-05-30T03:47:53.149Z,23.80
2019-05-30T03:50:22.105Z,23.90
2019-05-30T03:52:50.976Z,23.80
2019-05-30T03:55:19.807Z,23.80
2019-05-30T03:57:56.836Z,23.80
2019-05-30T04:00:35.279Z,23.80
2019-05-30T04:03:35.235Z,23.80
2019-05-30T04:06:07.853Z,23.80
2019-05-30T04:08:37.388Z,23.80
2019-05-30T04:11:09.809Z,23.80
2019-05-30T04:13:47.084Z,23.80
2019-05-30T04:16:16.214Z,23.70
2019-05-30T04:18:45.287Z,23.70
2019-05-30T04:21:18.157Z,23.70
2019-05-30T04:23:45.277Z,23.70
2019-05-30T04:26:15.721Z,23.70
2019-05-30T04:28:44.859Z,23.70
2019-05-30T04:31:14.526Z,23.70
2019-05-30T04:33:43.610Z,23.70
2019-05-30T04:36:12.641Z,23.70
2019-05-30T04:38:41.570Z,23.70
2019-05-30T04:41:11.268Z,23.70
2019-05-30T04:43:40.533Z,23.70
2019-05-30T04:46:10.249Z,23.70
2019-05-30T04:48:39.911Z,23.70
2019-05-30T04:51:10.153Z,23.60
2019-05-30T04:53:39.707Z,23.60
2019-05-30T04:56:10.173Z,23.70
2019-05-30T04:58:42.134Z,23.60
2019-05-30T05:01:10.960Z,23.60
2019-05-30T05:03:45.650Z,23.70
2019-05-30T05:06:11.549Z,23.70
2019-05-30T05:08:40.618Z,23.70
2019-05-30T05:11:12.385Z,23.70
2019-05-30T05:13:40.128Z,23.70
2019-05-30T05:16:24.612Z,23.70
2019-05-30T05:18:39.468Z,23.60
2019-05-30T05:21:08.331Z,23.70
2019-05-30T05:23:37.199Z,23.70
2019-05-30T05:26:06.057Z,23.70
2019-05-30T05:28:34.976Z,23.70
2019-05-30T05:31:03.791Z,23.70
2019-05-30T05:33:32.572Z,23.60
2019-05-30T05:36:01.360Z,23.70
2019-05-30T05:38:30.180Z,23.70
2019-05-30T05:40:59.005Z,23.70
2019-05-30T05:43:28.694Z,23.60
2019-05-30T05:45:57.672Z,23.70
2019-05-30T05:48:26.491Z,23.70
2019-05-30T05:50:55.288Z,23.70
2019-05-30T05:53:25.101Z,23.70
2019-05-30T05:55:54.072Z,23.60
2019-05-30T05:58:23.872Z,23.60
2019-05-30T06:00:53.748Z,23.70
2019-05-30T06:03:22.622Z,23.60
2019-05-30T06:05:53.206Z,23.60
2019-05-30T06:08:22.062Z,23.60
2019-05-30T06:10:50.859Z,23.60
2019-05-30T06:13:20.742Z,23.60
2019-05-30T06:15:49.933Z,23.60
2019-05-30T06:18:20.036Z,23.60
2019-05-30T06:20:49.257Z,23.60
2019-05-30T06:23:19.562Z,23.60
2019-05-30T06:25:48.549Z,23.60
2019-05-30T06:28:17.975Z,23.50
2019-05-30T06:30:46.995Z,23.60
2019-05-30T06:33:15.828Z,23.60
2019-05-30T06:35:44.619Z,23.60
2019-05-30T06:38:13.445Z,23.60
2019-05-30T06:40:42.240Z,23.50
2019-05-30T06:43:11.113Z,23.60
2019-05-30T06:45:40.124Z,23.60
2019-05-30T06:48:09.046Z,23.50
2019-05-30T06:50:37.832Z,23.60
2019-05-30T06:53:06.669Z,23.60
2019-05-30T06:55:35.453Z,23.50
2019-05-30T06:58:04.373Z,23.50
2019-05-30T07:00:33.179Z,23.50
2019-05-30T07:03:01.957Z,23.40
2019-05-30T07:05:32.852Z,23.40
2019-05-30T07:08:01.525Z,23.40
2019-05-30T07:10:31.128Z,23.40
2019-05-30T07:13:00.196Z,23.40
2019-05-30T07:15:29.417Z,23.40
2019-05-30T07:17:58.325Z,23.40
2019-05-30T07:20:27.605Z,23.30
2019-05-30T07:22:56.494Z,23.30
2019-05-30T07:25:25.714Z,23.30
2019-05-30T07:27:54.803Z,23.30
2019-05-30T07:30:23.814Z,23.20
2019-05-30T07:32:52.851Z,23.30
2019-05-30T07:35:21.889Z,23.30
2019-05-30T07:37:50.857Z,23.30
2019-05-30T07:40:20.002Z,23.30
2019-05-30T07:42:48.936Z,23.20
2019-05-30T07:45:17.751Z,23.20
2019-05-30T07:47:46.545Z,23.20
2019-05-30T07:50:15.330Z,23.20
2019-05-30T07:52:44.162Z,23.20
2019-05-30T07:55:13.145Z,23.20
2019-05-30T07:57:42.181Z,23.20
2019-05-30T08:00:11.175Z,23.20
2019-05-30T08:02:40.083Z,23.20
2019-05-30T08:05:22.705Z,23.30
2019-05-30T08:07:39.596Z,23.40
2019-05-30T08:10:08.615Z,23.40
2019-05-30T08:12:38.386Z,23.40
2019-05-30T08:15:07.475Z,23.40
2019-05-30T08:17:37.726Z,23.40
2019-05-30T08:20:07.080Z,23.50
2019-05-30T08:22:36.169Z,23.40
2019-05-30T08:25:07.112Z,23.50
2019-05-30T08:27:36.463Z,23.40
2019-05-30T08:30:06.116Z,23.50
2019-05-30T08:32:35.060Z,23.50
2019-05-30T08:35:04.184Z,23.50
2019-05-30T08:37:33.159Z,23.50
2019-05-30T08:40:02.089Z,23.50
2019-05-30T08:42:31.341Z,23.50
2019-05-30T08:45:00.194Z,23.50
2019-05-30T08:47:29.811Z,23.50
2019-05-30T08:49:58.858Z,23.50
2019-05-30T08:52:27.806Z,23.50
2019-05-30T08:54:56.702Z,23.50
2019-05-30T08:57:25.832Z,23.60
2019-05-30T08:59:54.664Z,23.60
2019-05-30T09:02:23.467Z,23.60
2019-05-30T09:04:52.266Z,23.60
2019-05-30T09:07:31.667Z,23.50
2019-05-30T09:10:00.981Z,23.60
2019-05-30T09:12:30.021Z,23.60
2019-05-30T09:14:58.857Z,23.60
2019-05-30T09:17:27.720Z,23.60
2019-05-30T09:19:56.584Z,23.60
2019-05-30T09:22:25.387Z,23.60
2019-05-30T09:24:54.273Z,23.60
2019-05-30T09:27:23.146Z,23.60
2019-05-30T09:29:52.024Z,23.60
2019-05-30T09:32:20.842Z,23.70
2019-05-30T09:34:49.669Z,23.70
2019-05-30T09:37:18.509Z,23.70
2019-05-30T09:39:47.444Z,23.60
2019-05-30T09:42:16.642Z,23.60
2019-05-30T09:44:48.007Z,23.60
2019-05-30T09:47:16.309Z,23.60
2019-05-30T09:49:46.471Z,23.70
2019-05-30T09:52:15.580Z,23.60
2019-05-30T09:54:44.411Z,23.60
2019-05-30T09:57:13.350Z,23.60
2019-05-30T09:59:43.533Z,23.60
2019-05-30T10:02:12.773Z,23.60
2019-05-30T10:04:42.057Z,23.60
2019-05-30T10:07:12.806Z,23.60
2019-05-30T10:09:42.751Z,23.60
2019-05-30T10:12:12.277Z,23.60
2019-05-30T10:14:41.116Z,23.60
2019-05-30T10:17:09.922Z,23.60
2019-05-30T10:19:38.788Z,23.60
2019-05-30T10:22:07.981Z,23.50
2019-05-30T10:24:36.828Z,23.60
2019-05-30T10:27:05.663Z,23.50
2019-05-30T10:29:34.596Z,23.60
2019-05-30T10:32:03.480Z,23.60
2019-05-30T10:34:32.286Z,23.60
2019-05-30T10:37:01.329Z,23.60
2019-05-30T10:39:30.276Z,23.50
2019-05-30T10:41:59.179Z,23.50
2019-05-30T10:44:28.112Z,23.50
2019-05-30T10:46:57.085Z,23.60
2019-05-30T10:49:34.627Z,23.60
2019-05-30T10:51:59.192Z,23.70
2019-05-30T10:54:27.735Z,23.60
2019-05-30T10:56:56.533Z,23.70
2019-05-30T10:59:45.955Z,23.70
2019-05-30T11:02:23.966Z,23.70
2019-05-30T11:04:53.157Z,23.70
2019-05-30T11:07:54.636Z,23.70
2019-05-30T11:10:22.475Z,23.70
2019-05-30T11:12:58.429Z,23.70
2019-05-30T11:15:21.929Z,23.70
2019-05-30T11:17:52.706Z,23.70
2019-05-30T11:20:21.726Z,23.70
2019-05-30T11:22:50.559Z,23.80
2019-05-30T11:25:19.475Z,23.90
2019-05-30T11:27:48.632Z,23.80
2019-05-30T11:30:18.229Z,23.90
2019-05-30T11:32:47.168Z,23.90
2019-05-30T11:35:16.047Z,23.90
2019-05-30T11:37:44.833Z,24.00
2019-05-30T11:40:13.696Z,24.00
2019-05-30T11:42:42.591Z,24.00
2019-05-30T11:45:17.785Z,24.00
2019-05-30T11:47:46.656Z,24.00
2019-05-30T11:50:15.460Z,24.00
2019-05-30T11:52:44.313Z,24.00
2019-05-30T11:55:13.175Z,24.00
2019-05-30T11:57:42.016Z,24.10
2019-05-30T12:00:11.209Z,24.10
2019-05-30T12:02:40.020Z,24.10
2019-05-30T12:05:10.275Z,24.10
2019-05-30T12:07:39.229Z,24.10
2019-05-30T12:10:08.147Z,24.10
2019-05-30T12:12:37.188Z,24.10
2019-05-30T12:15:06.528Z,24.10
2019-05-30T12:17:35.590Z,24.20
2019-05-30T12:20:04.615Z,24.10
2019-05-30T12:22:33.412Z,24.10
2019-05-30T12:25:02.743Z,24.20
2019-05-30T12:27:31.754Z,24.20
2019-05-30T12:30:00.540Z,24.20
2019-05-30T12:32:29.626Z,24.20
2019-05-30T12:34:58.524Z,24.20
2019-05-30T12:37:27.421Z,24.20
2019-05-30T12:39:56.579Z,24.20
2019-05-30T12:42:25.718Z,24.20
2019-05-30T12:44:54.979Z,24.30
2019-05-30T12:47:24.024Z,24.30
2019-05-30T12:49:53.259Z,24.30
2019-05-30T12:52:22.168Z,24.30
2019-05-30T12:54:50.979Z,24.30
2019-05-30T12:57:19.879Z,24.30
2019-05-30T12:59:48.834Z,24.40
2019-05-30T13:02:17.828Z,24.40
2019-05-30T13:04:46.684Z,24.40
2019-05-30T13:07:15.529Z,24.50
2019-05-30T13:09:44.625Z,24.50
2019-05-30T13:12:13.526Z,24.60
2019-05-30T13:14:42.360Z,24.60
2019-05-30T13:17:11.269Z,24.60
2019-05-30T13:19:40.122Z,24.60
2019-05-30T13:22:09.031Z,24.60
2019-05-30T13:24:37.901Z,24.60
2019-05-30T13:27:06.846Z,24.70
2019-05-30T13:29:35.811Z,24.70
2019-05-30T13:32:04.680Z,24.70
2019-05-30T13:34:33.650Z,24.70
2019-05-30T13:37:02.995Z,24.80
2019-05-30T13:39:31.964Z,24.80
2019-05-30T13:42:01.663Z,24.80
2019-05-30T13:44:30.747Z,24.80
2019-05-30T13:47:00.812Z,24.90
2019-05-30T13:49:29.881Z,24.90
2019-05-30T13:51:59.001Z,24.90
2019-05-30T13:54:28.039Z,24.90
2019-05-30T13:56:56.845Z,24.90
2019-05-30T13:59:25.695Z,24.90
2019-05-30T14:01:54.524Z,24.90
2019-05-30T14:04:23.372Z,24.90
2019-05-30T14:06:52.221Z,24.90
2019-05-30T14:09:21.105Z,24.90
2019-05-30T14:11:49.897Z,24.90
2019-05-30T14:14:19.779Z,24.90
2019-05-30T14:16:48.829Z,24.90
2019-05-30T14:19:17.689Z,24.90
2019-05-30T14:21:46.591Z,24.90
2019-05-30T14:24:15.598Z,24.90
2019-05-30T14:26:44.470Z,24.90
2019-05-30T14:29:13.393Z,24.90
2019-05-30T14:31:42.223Z,24.90
2019-05-30T14:34:12.166Z,25.00
2019-05-30T14:36:41.157Z,24.90
2019-05-30T14:39:11.192Z,25.00
2019-05-30T14:41:40.116Z,24.90
2019-05-30T14:44:09.076Z,25.00
2019-05-30T14:46:37.985Z,25.00
2019-05-30T14:49:06.857Z,25.00
2019-05-30T14:51:35.665Z,25.10
2019-05-30T14:54:05.219Z,25.10
2019-05-30T14:56:34.500Z,25.10
2019-05-30T14:59:03.451Z,25.10
2019-05-30T15:01:32.321Z,25.10
2019-05-30T15:04:01.169Z,25.10
2019-05-30T15:06:29.978Z,25.20
2019-05-30T15:09:14.402Z,25.20
2019-05-30T15:11:29.450Z,25.20
2019-05-30T15:13:58.259Z,25.20
2019-05-30T15:16:27.147Z,25.20
2019-05-30T15:18:56.052Z,25.30
2019-05-30T15:21:25.333Z,25.30
2019-05-30T15:23:54.236Z,25.30
2019-05-30T15:26:23.208Z,25.40
2019-05-30T15:28:52.014Z,25.30
2019-05-30T15:31:20.825Z,25.40
2019-05-30T15:33:49.616Z,25.40
2019-05-30T15:36:18.435Z,25.40
2019-05-30T15:38:47.755Z,25.40
2019-05-30T15:41:17.361Z,25.40
2019-05-30T15:43:46.326Z,25.50
2019-05-30T15:46:15.907Z,25.50
2019-05-30T15:48:44.836Z,25.50
2019-05-30T15:51:14.661Z,25.50
2019-05-30T15:53:43.775Z,25.50
2019-05-30T15:56:13.246Z,25.50
2019-05-30T15:58:42.292Z,25.50
2019-05-30T16:01:11.813Z,25.50
2019-05-30T16:03:40.691Z,25.50
2019-05-30T16:06:10.475Z,25.50
2019-05-30T16:08:39.543Z,25.50
2019-05-30T16:11:08.427Z,25.50
2019-05-30T16:13:37.254Z,25.50
2019-05-30T16:16:06.052Z,25.50
2019-05-30T16:18:34.855Z,25.50
2019-05-30T16:21:03.762Z,25.50
2019-05-30T16:23:32.567Z,25.60
2019-05-30T16:26:01.519Z,25.60
2019-05-30T16:28:30.396Z,25.60
2019-05-30T16:30:59.187Z,25.60
2019-05-30T16:33:27.977Z,25.60
2019-05-30T16:35:56.794Z,25.60
2019-05-30T16:38:26.439Z,25.60
2019-05-30T16:40:55.526Z,25.60
2019-05-30T16:43:24.635Z,25.50
2019-05-30T16:45:53.464Z,25.60
2019-05-30T16:48:22.579Z,25.50
2019-05-30T16:50:51.976Z,25.50
2019-05-30T16:53:23.115Z,25.50
2019-05-30T16:55:51.628Z,25.50
2019-05-30T16:58:21.895Z,25.50
2019-05-30T17:00:51.112Z,25.50
2019-05-30T17:03:20.025Z,25.50
2019-05-30T17:05:48.960Z,25.50
2019-05-30T17:08:18.087Z,25.50
2019-05-30T17:10:47.073Z,25.50
2019-05-30T17:13:17.739Z,25.50
2019-05-30T17:15:46.579Z,25.50
2019-05-30T17:18:16.029Z,25.50
2019-05-30T17:20:45.064Z,25.50
2019-05-30T17:23:13.938Z,25.50
2019-05-30T17:25:42.812Z,25.50
2019-05-30T17:28:14.808Z,25.50
2019-05-30T17:30:42.500Z,25.50
2019-05-30T17:33:11.343Z,25.50
2019-05-30T17:35:40.260Z,25.50
2019-05-30T17:38:09.113Z,25.50
2019-05-30T17:40:44.540Z,25.60
2019-05-30T17:43:08.648Z,25.50
2019-05-30T17:45:37.584Z,25.50
2019-05-30T17:48:15.957Z,25.50
2019-05-30T17:50:37.268Z,25.50
2019-05-30T17:53:06.082Z,25.50
2019-05-30T17:55:35.092Z,25.50
2019-05-30T17:58:04.026Z,25.50
2019-05-30T18:00:33.038Z,25.50
2019-05-30T18:03:01.880Z,25.50
2019-05-30T18:05:31.051Z,25.50
2019-05-30T18:08:00.376Z,25.50
2019-05-30T18:10:29.224Z,25.50
2019-05-30T18:12:58.123Z,25.50
2019-05-30T18:15:28.947Z,25.50
2019-05-30T18:17:57.701Z,25.50
2019-05-30T18:20:27.352Z,25.50
2019-05-30T18:22:56.355Z,25.50
2019-05-30T18:25:25.619Z,25.50
2019-05-30T18:27:54.617Z,25.50
2019-05-30T18:30:29.884Z,25.50
2019-05-30T18:32:58.874Z,25.50
2019-05-30T18:35:28.478Z,25.40
2019-05-30T18:37:57.531Z,25.50
2019-05-30T18:40:33.237Z,25.50
2019-05-30T18:43:02.304Z,25.50
2019-05-30T18:45:39.012Z,25.40
2019-05-30T18:48:08.684Z,25.40
2019-05-30T18:50:37.532Z,25.40
2019-05-30T18:53:06.598Z,25.40
2019-05-30T18:55:35.515Z,25.40
2019-05-30T18:58:07.291Z,25.50
2019-05-30T19:00:35.026Z,25.40
2019-05-30T19:03:04.088Z,25.40
2019-05-30T19:05:33.110Z,25.40
2019-05-30T19:08:02.099Z,25.40
2019-05-30T19:10:32.068Z,25.40
2019-05-30T19:13:01.055Z,25.40
2019-05-30T19:15:31.504Z,25.40
2019-05-30T19:18:00.489Z,25.40
2019-05-30T19:20:29.702Z,25.40
2019-05-30T19:22:58.676Z,25.40
2019-05-30T19:25:27.496Z,25.40
2019-05-30T19:27:56.291Z,25.40
2019-05-30T19:30:26.396Z,25.40
2019-05-30T19:32:55.500Z,25.40
2019-05-30T19:35:24.450Z,25.40
2019-05-30T19:37:53.266Z,25.40
2019-05-30T19:40:24.933Z,25.40
2019-05-30T19:42:52.974Z,25.40
2019-05-30T19:45:21.779Z,25.40
2019-05-30T19:48:09.890Z,25.40
2019-05-30T19:50:38.950Z,25.40
2019-05-30T19:53:07.958Z,25.40
2019-05-30T19:55:37.543Z,25.40
2019-05-30T19:58:06.499Z,25.40
2019-05-30T20:00:53.455Z,25.40
2019-05-30T20:03:06.425Z,25.40
2019-05-30T20:05:36.619Z,25.40
2019-05-30T20:08:05.664Z,25.40
2019-05-30T20:10:35.052Z,25.40
2019-05-30T20:13:04.300Z,25.40
2019-05-30T20:15:33.355Z,25.40
2019-05-30T20:18:02.463Z,25.30
2019-05-30T20:20:49.507Z,25.30
2019-05-30T20:23:02.245Z,25.40
2019-05-30T20:25:32.495Z,25.40
2019-05-30T20:28:01.768Z,25.40
2019-05-30T20:30:30.743Z,25.30
2019-05-30T20:32:59.657Z,25.30
2019-05-30T20:35:28.605Z,25.30
2019-05-30T20:37:57.712Z,25.30
2019-05-30T20:40:26.593Z,25.30
2019-05-30T20:42:55.565Z,25.40
2019-05-30T20:45:24.475Z,25.30
2019-05-30T20:47:53.359Z,25.30
2019-05-30T20:50:22.315Z,25.30
2019-05-30T20:52:51.252Z,25.30
2019-05-30T20:55:21.055Z,25.30
2019-05-30T20:57:50.316Z,25.30
2019-05-30T21:00:19.312Z,25.30
2019-05-30T21:02:48.351Z,25.30
2019-05-30T21:05:17.225Z,25.30
2019-05-30T21:07:46.232Z,25.20
2019-05-30T21:10:15.258Z,25.20
2019-05-30T21:12:46.867Z,25.20
2019-05-30T21:15:15.578Z,25.20
2019-05-30T21:17:46.231Z,25.20
2019-05-30T21:20:15.333Z,25.20
2019-05-30T21:22:44.664Z,25.20
2019-05-30T21:25:14.031Z,25.20
2019-05-30T21:27:43.053Z,25.20
2019-05-30T21:30:12.093Z,25.20
2019-05-30T21:32:42.075Z,25.20
2019-05-30T21:35:11.634Z,25.20
2019-05-30T21:37:41.800Z,25.10
2019-05-30T21:40:10.753Z,25.20
2019-05-30T21:42:55.603Z,25.10
2019-05-30T21:45:10.209Z,25.10
2019-05-30T21:47:39.037Z,25.10
2019-05-30T21:50:07.953Z,25.20
2019-05-30T21:52:36.872Z,25.10
2019-05-30T21:55:05.841Z,25.10
2019-05-30T21:57:34.678Z,25.10
2019-05-30T22:00:07.712Z,25.20
2019-05-30T22:02:36.528Z,25.10
2019-05-30T22:05:05.864Z,25.10
2019-05-30T22:07:34.808Z,25.10
2019-05-30T22:10:03.709Z,25.10
2019-05-30T22:12:32.589Z,25.20
2019-05-30T22:15:01.398Z,25.20
2019-05-30T22:17:30.221Z,25.20
2019-05-30T22:19:59.225Z,25.20
2019-05-30T22:22:28.050Z,25.20
2019-05-30T22:24:57.091Z,25.20
2019-05-30T22:27:25.980Z,25.20
2019-05-30T22:29:54.866Z,25.20
2019-05-30T22:32:23.808Z,25.20
2019-05-30T22:34:52.975Z,25.20
2019-05-30T22:37:22.079Z,25.20
2019-05-30T22:39:51.056Z,25.20
2019-05-30T22:42:20.034Z,25.20
2019-05-30T22:44:48.828Z,25.20
2019-05-30T22:47:18.763Z,25.20
2019-05-30T22:49:48.691Z,25.20
2019-05-30T22:52:17.708Z,25.20
2019-05-30T22:54:47.108Z,25.20
2019-05-30T22:57:15.980Z,25.20
2019-05-30T22:59:44.846Z,25.20
2019-05-30T23:02:13.749Z,25.10
2019-05-30T23:04:42.999Z,25.10
2019-05-30T23:07:11.782Z,25.10
2019-05-30T23:09:40.658Z,25.10
2019-05-30T23:12:09.471Z,25.10
2019-05-30T23:14:38.258Z,25.10
2019-05-30T23:17:07.039Z,25.10
2019-05-30T23:19:35.860Z,25.10
2019-05-30T23:22:05.001Z,25.10
2019-05-30T23:24:33.914Z,25.00
2019-05-30T23:27:02.784Z,25.00
2019-05-30T23:29:31.683Z,25.00
2019-05-30T23:32:00.647Z,25.00
2019-05-30T23:34:29.684Z,25.00
2019-05-30T23:36:58.794Z,25.00
2019-05-30T23:39:27.692Z,25.00
2019-05-30T23:41:57.254Z,25.00
2019-05-30T23:44:26.608Z,25.00
2019-05-30T23:46:55.641Z,25.00
2019-05-30T23:49:24.560Z,25.00
2019-05-30T23:51:54.575Z,25.00
2019-05-30T23:54:23.564Z,25.00
2019-05-30T23:56:52.464Z,25.00
2019-05-30T23:59:21.391Z,25.00
